createdAt,value
2022-10-11T00:01:05.154Z,100.00
2022-10-11T00:03:33.418Z,100.00
2022-10-11T00:06:03.633Z,100.00
2022-10-11T00:08:34.676Z,100.00
2022-10-11T00:11:06.330Z,100.00
2022-10-11T00:13:34.356Z,100.00
2022-10-11T00:16:09.007Z,100.00
2022-10-11T00:18:37.336Z,100.00
2022-10-11T00:21:12.939Z,100.00
2022-10-11T00:23:41.983Z,100.00
2022-10-11T00:26:11.259Z,100.00
2022-10-11T00:28:39.560Z,100.00
2022-10-11T00:31:10.577Z,100.00
2022-10-11T00:33:38.910Z,100.00
2022-10-11T00:36:08.758Z,100.00
2022-10-11T00:38:37.021Z,100.00
2022-10-11T00:41:05.527Z,100.00
2022-10-11T00:43:34.006Z,100.00
2022-10-11T00:46:07.569Z,100.00
2022-10-11T00:48:36.051Z,100.00
2022-10-11T00:51:13.305Z,100.00
2022-10-11T00:56:31.561Z,100.00
2022-10-11T00:59:02.948Z,100.00
2022-10-11T01:01:34.581Z,100.00
2022-10-11T01:04:03.491Z,100.00
2022-10-11T01:06:35.445Z,100.00
2022-10-11T01:09:04.496Z,100.00
2022-10-11T01:11:33.194Z,100.00
2022-10-11T01:14:27.135Z,100.00
2022-10-11T01:17:06.853Z,100.00
2022-10-11T01:20:19.034Z,100.00
2022-10-11T01:23:11.622Z,100.00
2022-10-11T01:26:07.395Z,100.00
2022-10-11T01:28:44.258Z,100.00
2022-10-11T01:31:17.775Z,100.00
2022-10-11T01:34:03.746Z,100.00
2022-10-11T01:36:41.888Z,100.00
2022-10-11T01:39:41.079Z,100.00
2022-10-11T01:42:12.733Z,100.00
2022-10-11T01:44:45.301Z,100.00
2022-10-11T01:47:13.278Z,100.00
2022-10-11T01:49:42.241Z,100.00
2022-10-11T01:52:11.560Z,100.00
2022-10-11T01:55:17.853Z,100.00
2022-10-11T01:57:58.227Z,100.00
2022-10-11T02:00:33.889Z,100.00
2022-10-11T02:03:23.719Z,100.00
2022-10-11T02:06:01.533Z,99.75
2022-10-11T02:08:51.558Z,100.00
2022-10-11T02:11:30.368Z,100.00
2022-10-11T02:14:10.463Z,100.00
2022-10-11T02:16:49.562Z,100.00
2022-10-11T02:19:22.233Z,100.00
2022-10-11T02:22:05.900Z,100.00
2022-10-11T02:24:43.357Z,100.00
2022-10-11T02:27:13.877Z,100.00
2022-10-11T02:29:47.317Z,100.00
2022-10-11T02:32:30.404Z,100.00
2022-10-11T02:35:12.437Z,100.00
2022-10-11T02:38:01.651Z,100.00
2022-10-11T02:40:48.785Z,100.00
2022-10-11T02:43:38.832Z,100.00
2022-10-11T02:46:20.716Z,100.00
2022-10-11T02:49:03.345Z,100.00
2022-10-11T02:51:43.581Z,100.00
2022-10-11T02:54:25.062Z,100.00
2022-10-11T02:57:05.269Z,100.00
2022-10-11T02:59:47.958Z,100.00
2022-10-11T03:02:28.585Z,100.00
2022-10-11T03:05:09.350Z,100.00
2022-10-11T03:07:50.195Z,100.00
2022-10-11T03:10:30.394Z,100.00
2022-10-11T03:13:12.821Z,100.00
2022-10-11T03:16:03.243Z,100.00
2022-10-11T03:18:47.791Z,100.00
2022-10-11T03:21:28.384Z,100.00
2022-10-11T03:24:08.277Z,100.00
2022-10-11T03:26:51.290Z,100.00
2022-10-11T03:29:31.800Z,100.00
2022-10-11T03:32:14.513Z,100.00
2022-10-11T03:34:55.074Z,100.00
2022-10-11T03:37:35.159Z,100.00
2022-10-11T03:40:15.679Z,100.00
2022-10-11T03:42:56.743Z,100.00
2022-10-11T03:45:37.216Z,100.00
2022-10-11T03:48:17.072Z,100.00
2022-10-11T03:50:57.211Z,100.00
2022-10-11T03:53:37.323Z,100.00
2022-10-11T03:56:17.372Z,100.00
2022-10-11T03:58:57.454Z,100.00
2022-10-11T04:01:40.391Z,100.00
2022-10-11T04:04:20.754Z,100.00
2022-10-11T04:07:00.953Z,100.00
2022-10-11T04:09:41.054Z,100.00
2022-10-11T04:12:24.101Z,100.00
2022-10-11T04:15:05.060Z,100.00
2022-10-11T04:17:45.932Z,100.00
2022-10-11T04:20:26.164Z,100.00
2022-10-11T04:23:06.476Z,100.00
2022-10-11T04:25:47.287Z,100.00
2022-10-11T04:28:27.934Z,100.00
2022-10-11T04:31:08.291Z,100.00
2022-10-11T04:33:48.085Z,100.00
2022-10-11T04:36:28.475Z,100.00
2022-10-11T04:39:08.886Z,100.00
2022-10-11T04:41:49.928Z,100.00
2022-10-11T04:44:30.253Z,100.00
2022-10-11T04:47:10.193Z,100.00
2022-10-11T04:49:50.227Z,100.00
2022-10-11T04:52:30.461Z,100.00
2022-10-11T04:55:11.540Z,100.00
2022-10-11T04:57:52.156Z,100.00
2022-10-11T05:00:32.498Z,100.00
2022-10-11T05:03:12.625Z,100.00
2022-10-11T05:05:54.203Z,100.00
2022-10-11T05:08:34.577Z,100.00
2022-10-11T05:11:17.587Z,100.00
2022-10-11T05:13:57.441Z,99.59
2022-10-11T05:16:37.476Z,99.25
2022-10-11T05:19:17.745Z,100.00
2022-10-11T05:21:57.799Z,99.25
2022-10-11T05:24:38.073Z,99.92
2022-10-11T05:27:17.874Z,100.00
2022-10-11T05:29:57.981Z,99.37
2022-10-11T05:32:37.974Z,99.88
2022-10-11T05:35:18.146Z,100.00
2022-10-11T05:37:58.407Z,100.00
2022-10-11T05:40:39.332Z,100.00
2022-10-11T05:43:20.091Z,100.00
2022-10-11T05:46:00.008Z,100.00
2022-10-11T05:48:40.743Z,98.47
2022-10-11T05:51:21.816Z,96.47
2022-10-11T05:54:01.961Z,93.04
2022-10-11T05:56:42.001Z,93.17
2022-10-11T05:59:22.072Z,95.47
2022-10-11T06:02:02.258Z,87.39
2022-10-11T06:04:42.360Z,90.19
2022-10-11T06:07:23.003Z,94.33
2022-10-11T06:10:05.274Z,99.42
2022-10-11T06:12:45.911Z,99.99
2022-10-11T06:15:26.001Z,97.70
2022-10-11T06:18:05.985Z,92.76
2022-10-11T06:20:45.933Z,93.29
2022-10-11T06:23:26.436Z,90.84
2022-10-11T06:26:09.319Z,90.47
2022-10-11T06:28:49.786Z,88.76
2022-10-11T06:31:29.554Z,87.11
2022-10-11T06:34:14.104Z,87.10
2022-10-11T06:36:54.694Z,88.52
2022-10-11T06:39:35.381Z,89.63
2022-10-11T06:42:16.891Z,87.45
2022-10-11T06:44:58.194Z,85.57
2022-10-11T06:47:38.068Z,84.76
2022-10-11T06:50:29.942Z,85.13
2022-10-11T06:53:19.068Z,82.08
2022-10-11T06:56:07.352Z,82.53
2022-10-11T06:58:49.062Z,81.91
2022-10-11T07:01:28.965Z,79.95
2022-10-11T07:04:12.033Z,77.52
2022-10-11T07:06:52.481Z,77.01
2022-10-11T07:09:32.471Z,78.00
2022-10-11T07:12:12.455Z,79.23
2022-10-11T07:14:52.509Z,77.07
2022-10-11T07:17:35.405Z,75.89
2022-10-11T07:20:15.959Z,76.63
2022-10-11T07:22:56.048Z,72.91
2022-10-11T07:25:36.018Z,71.77
2022-10-11T07:28:16.193Z,71.86
2022-10-11T07:30:56.439Z,73.55
2022-10-11T07:33:36.378Z,75.92
2022-10-11T07:36:16.377Z,75.34
2022-10-11T07:38:56.366Z,71.21
2022-10-11T07:41:40.644Z,70.29
2022-10-11T07:44:24.950Z,75.39
2022-10-11T07:47:07.782Z,68.66
2022-10-11T07:49:51.146Z,64.95
2022-10-11T07:52:31.209Z,67.67
2022-10-11T07:55:11.379Z,66.01
2022-10-11T07:57:51.462Z,62.98
2022-10-11T08:00:31.587Z,66.13
2022-10-11T08:03:11.917Z,76.96
2022-10-11T08:05:52.562Z,71.56
2022-10-11T08:08:33.733Z,69.52
2022-10-11T08:11:25.000Z,68.13
2022-10-11T08:14:09.124Z,71.93
2022-10-11T08:16:49.977Z,59.83
2022-10-11T08:19:29.939Z,59.75
2022-10-11T08:22:11.569Z,69.65
2022-10-11T08:24:51.649Z,72.94
2022-10-11T08:27:31.706Z,61.45
2022-10-11T08:30:12.312Z,71.13
2022-10-11T08:32:53.576Z,61.25
2022-10-11T08:35:33.537Z,65.65
2022-10-11T08:38:13.590Z,76.82
2022-10-11T08:40:59.779Z,67.38
2022-10-11T08:44:12.364Z,71.61
2022-10-11T08:47:00.700Z,60.87
2022-10-11T08:49:40.640Z,67.49
2022-10-11T08:52:28.643Z,58.26
2022-10-11T08:55:26.636Z,61.61
2022-10-11T08:58:13.576Z,71.90
2022-10-11T09:00:56.957Z,60.27
2022-10-11T09:03:44.900Z,61.11
2022-10-11T09:10:03.988Z,60.85
2022-10-11T09:12:44.928Z,61.01
2022-10-11T09:15:51.810Z,67.99
2022-10-11T09:18:50.984Z,65.95
2022-10-11T09:21:51.519Z,63.06
2022-10-11T09:24:33.603Z,57.50
2022-10-11T09:27:37.833Z,66.03
2022-10-11T09:30:23.519Z,52.39
2022-10-11T09:33:28.846Z,72.08
2022-10-11T09:36:30.262Z,68.48
2022-10-11T09:39:30.525Z,56.88
2022-10-11T09:42:12.116Z,58.40
2022-10-11T09:44:51.486Z,55.28
2022-10-11T09:47:31.119Z,54.05
2022-10-11T09:50:05.462Z,74.18
2022-10-11T09:52:34.557Z,68.00
2022-10-11T09:55:03.506Z,63.57
2022-10-11T09:57:31.349Z,50.28
2022-10-11T10:00:35.464Z,61.35
2022-10-11T10:03:04.915Z,52.75
2022-10-11T10:05:37.088Z,72.18
2022-10-11T10:08:23.047Z,54.83
2022-10-11T10:10:59.420Z,53.33
2022-10-11T10:13:41.136Z,58.75
2022-10-11T10:16:26.188Z,48.91
2022-10-11T10:19:06.369Z,67.47
2022-10-11T10:21:49.599Z,53.21
2022-10-11T10:24:33.452Z,49.34
2022-10-11T10:27:22.823Z,48.08
2022-10-11T10:30:01.245Z,45.20
2022-10-11T10:33:21.390Z,50.20
2022-10-11T10:36:15.925Z,47.52
2022-10-11T10:38:52.446Z,61.35
2022-10-11T10:41:21.015Z,53.96
2022-10-11T10:43:59.894Z,47.50
2022-10-11T10:46:56.658Z,57.12
2022-10-11T10:49:54.387Z,47.07
2022-10-11T10:52:53.749Z,52.29
2022-10-11T10:55:33.542Z,49.56
2022-10-11T10:58:29.495Z,44.62
2022-10-11T11:01:05.800Z,51.20
2022-10-11T11:03:44.557Z,54.67
2022-10-11T11:06:36.878Z,43.86
2022-10-11T11:09:40.272Z,45.30
2022-10-11T11:12:25.591Z,63.47
2022-10-11T11:15:05.959Z,45.11
2022-10-11T11:17:48.809Z,46.29
2022-10-11T11:20:35.380Z,47.52
2022-10-11T11:23:20.417Z,54.06
2022-10-11T11:26:09.014Z,51.36
2022-10-11T11:28:58.421Z,45.93
2022-10-11T11:31:41.803Z,48.16
2022-10-11T11:34:28.152Z,49.43
2022-10-11T11:37:04.107Z,46.00
2022-10-11T11:40:04.781Z,45.55
2022-10-11T11:42:48.162Z,45.36
2022-10-11T11:45:22.449Z,44.46
2022-10-11T11:48:19.056Z,43.87
2022-10-11T11:50:56.089Z,45.96
2022-10-11T11:53:49.644Z,44.28
2022-10-11T11:56:29.722Z,41.86
2022-10-11T11:59:22.237Z,41.90
2022-10-11T12:02:02.971Z,41.65
2022-10-11T12:04:36.481Z,41.22
2022-10-11T12:07:17.795Z,42.23
2022-10-11T12:09:53.395Z,41.32
2022-10-11T12:12:34.422Z,39.36
2022-10-11T12:15:17.391Z,38.86
2022-10-11T12:17:57.630Z,38.45
2022-10-11T12:20:39.004Z,38.47
2022-10-11T12:23:20.065Z,37.87
2022-10-11T12:26:19.868Z,36.68
2022-10-11T12:29:01.651Z,36.09
2022-10-11T12:31:33.813Z,36.87
2022-10-11T12:34:04.289Z,35.84
2022-10-11T12:36:44.639Z,34.83
2022-10-11T12:39:21.557Z,34.95
2022-10-11T12:41:50.198Z,34.77
2022-10-11T12:44:30.727Z,35.74
2022-10-11T12:47:37.029Z,36.24
2022-10-11T12:50:28.448Z,36.92
2022-10-11T12:53:19.654Z,37.66
2022-10-11T12:55:53.277Z,36.57
2022-10-11T12:58:41.837Z,35.99
2022-10-11T13:01:22.877Z,36.53
2022-10-11T13:04:06.774Z,36.10
2022-10-11T13:06:47.646Z,36.76
2022-10-11T13:09:33.055Z,36.58
2022-10-11T13:12:07.079Z,36.32
2022-10-11T13:14:48.590Z,36.42
2022-10-11T13:17:27.318Z,36.00
2022-10-11T13:20:20.696Z,36.23
2022-10-11T13:22:54.275Z,35.69
2022-10-11T13:25:28.879Z,36.07
2022-10-11T13:27:59.898Z,37.34
2022-10-11T13:30:37.350Z,38.04
2022-10-11T13:33:14.064Z,39.50
2022-10-11T13:35:42.391Z,40.30
2022-10-11T13:38:43.511Z,40.47
2022-10-11T13:41:11.705Z,42.09
2022-10-11T13:43:41.028Z,43.44
2022-10-11T13:46:17.832Z,44.66
2022-10-11T13:48:46.239Z,45.77
2022-10-11T13:51:32.724Z,45.76
2022-10-11T13:54:02.368Z,45.13
2022-10-11T13:56:35.028Z,43.79
2022-10-11T13:59:03.591Z,42.30
2022-10-11T14:01:44.690Z,43.03
2022-10-11T14:04:17.734Z,43.67
2022-10-11T14:07:02.872Z,43.15
2022-10-11T14:09:35.446Z,42.96
2022-10-11T14:12:38.787Z,42.69
2022-10-11T14:15:25.063Z,42.82
2022-10-11T14:17:52.926Z,43.33
2022-10-11T14:20:29.544Z,44.60
2022-10-11T14:23:00.400Z,46.34
2022-10-11T14:25:28.670Z,49.34
2022-10-11T14:27:56.945Z,51.85
2022-10-11T14:30:27.783Z,52.64
2022-10-11T14:32:58.187Z,54.24
2022-10-11T14:35:32.088Z,57.58
2022-10-11T14:38:00.221Z,61.12
2022-10-11T14:40:31.111Z,60.68
2022-10-11T14:42:59.114Z,62.64
2022-10-11T14:45:27.239Z,63.72
2022-10-11T14:47:56.421Z,64.33
2022-10-11T14:50:27.036Z,64.96
2022-10-11T14:52:55.495Z,65.73
2022-10-11T14:55:23.636Z,65.69
2022-10-11T14:57:51.742Z,68.32
2022-10-11T15:00:24.865Z,68.57
2022-10-11T15:02:54.003Z,69.53
2022-10-11T15:05:24.354Z,69.53
2022-10-11T15:07:55.131Z,70.17
2022-10-11T15:10:28.210Z,71.50
2022-10-11T15:12:57.356Z,72.32
2022-10-11T15:15:27.983Z,71.96
2022-10-11T15:18:00.705Z,71.62
2022-10-11T15:20:33.538Z,71.87
2022-10-11T15:23:01.626Z,71.95
2022-10-11T15:25:31.056Z,73.14
2022-10-11T15:27:58.891Z,73.13
2022-10-11T15:30:30.308Z,73.61
2022-10-11T15:32:58.798Z,73.07
2022-10-11T15:35:27.931Z,73.28
2022-10-11T15:38:01.381Z,75.19
2022-10-11T15:40:36.114Z,75.20
2022-10-11T15:43:04.861Z,75.18
2022-10-11T15:45:37.269Z,76.84
2022-10-11T15:48:05.471Z,75.25
2022-10-11T15:50:40.173Z,74.47
2022-10-11T15:53:10.583Z,75.44
2022-10-11T15:55:47.143Z,75.21
2022-10-11T15:58:17.252Z,76.34
2022-10-11T16:00:47.420Z,74.39
2022-10-11T16:03:16.743Z,74.77
2022-10-11T16:05:44.684Z,74.66
2022-10-11T16:08:12.892Z,75.72
2022-10-11T16:10:41.716Z,76.04
2022-10-11T16:13:10.825Z,78.41
2022-10-11T16:15:41.042Z,76.80
2022-10-11T16:18:12.248Z,78.04
2022-10-11T16:20:41.598Z,75.17
2022-10-11T16:23:10.530Z,74.68
2022-10-11T16:25:39.463Z,74.52
2022-10-11T16:28:11.131Z,77.48
2022-10-11T16:30:42.626Z,77.83
2022-10-11T16:33:10.683Z,75.81
2022-10-11T16:35:42.289Z,78.04
2022-10-11T16:38:11.283Z,78.96
2022-10-11T16:40:40.631Z,78.95
2022-10-11T16:43:09.387Z,77.47
2022-10-11T16:45:38.139Z,77.59
2022-10-11T16:48:06.356Z,76.87
2022-10-11T16:50:39.607Z,75.82
2022-10-11T16:53:15.897Z,75.85
2022-10-11T16:55:46.783Z,76.75
2022-10-11T16:58:15.121Z,74.74
2022-10-11T17:00:46.054Z,74.10
2022-10-11T17:03:14.182Z,75.77
2022-10-11T17:05:42.007Z,74.82
2022-10-11T17:08:09.842Z,74.62
2022-10-11T17:10:40.634Z,74.64
2022-10-11T17:13:08.511Z,74.26
2022-10-11T17:15:36.674Z,75.97
2022-10-11T17:18:04.977Z,76.93
2022-10-11T17:20:33.390Z,75.49
2022-10-11T17:23:01.230Z,75.00
2022-10-11T17:25:30.189Z,74.63
2022-10-11T17:27:58.238Z,77.04
2022-10-11T17:30:26.468Z,75.51
2022-10-11T17:32:54.617Z,77.62
2022-10-11T17:35:22.386Z,77.11
2022-10-11T17:37:50.352Z,79.52
2022-10-11T17:40:18.871Z,79.62
2022-10-11T17:42:48.017Z,78.68
2022-10-11T17:45:15.821Z,79.08
2022-10-11T17:47:43.985Z,76.86
2022-10-11T17:50:11.851Z,77.02
2022-10-11T17:52:39.658Z,77.17
2022-10-11T17:55:08.109Z,78.22
2022-10-11T17:57:35.972Z,77.65
2022-10-11T18:00:05.671Z,78.74
2022-10-11T18:02:33.958Z,78.83
2022-10-11T18:05:05.305Z,77.75
2022-10-11T18:07:33.922Z,79.07
2022-10-11T18:10:01.673Z,79.46
2022-10-11T18:12:30.522Z,79.93
2022-10-11T18:14:58.724Z,80.51
2022-10-11T18:19:54.441Z,77.96
2022-10-11T18:22:22.681Z,77.22
2022-10-11T18:24:50.524Z,79.53
2022-10-11T18:27:18.688Z,79.24
2022-10-11T18:29:46.816Z,79.93
2022-10-11T18:32:18.395Z,81.34
2022-10-11T18:34:46.680Z,80.41
2022-10-11T18:37:14.632Z,79.96
2022-10-11T18:39:42.544Z,80.61
2022-10-11T18:42:10.790Z,81.89
2022-10-11T18:44:38.978Z,80.67
2022-10-11T18:47:06.835Z,79.11
2022-10-11T18:49:35.097Z,80.52
2022-10-11T18:52:02.953Z,79.89
2022-10-11T18:54:31.048Z,79.33
2022-10-11T18:57:02.309Z,79.02
2022-10-11T18:59:30.181Z,79.25
2022-10-11T19:01:58.058Z,80.56
2022-10-11T19:04:26.335Z,82.77
2022-10-11T19:06:54.406Z,83.21
2022-10-11T19:09:26.583Z,82.24
2022-10-11T19:11:57.570Z,82.71
2022-10-11T19:14:28.949Z,84.27
2022-10-11T19:16:57.623Z,84.45
2022-10-11T19:19:27.520Z,84.13
2022-10-11T19:21:55.248Z,84.48
2022-10-11T19:24:26.906Z,86.72
2022-10-11T19:27:01.245Z,90.18
2022-10-11T19:29:31.542Z,91.44
2022-10-11T19:32:01.129Z,90.78
2022-10-11T19:34:30.308Z,88.90
2022-10-11T19:37:01.273Z,85.54
2022-10-11T19:39:30.035Z,84.03
2022-10-11T19:41:58.210Z,85.71
2022-10-11T19:44:26.046Z,86.10
2022-10-11T19:46:53.924Z,86.87
2022-10-11T19:49:25.444Z,86.87
2022-10-11T19:51:55.729Z,87.79
2022-10-11T19:54:24.372Z,89.63
2022-10-11T19:56:52.872Z,91.38
2022-10-11T19:59:20.766Z,91.40
2022-10-11T20:01:52.664Z,90.99
2022-10-11T20:07:09.810Z,91.64
2022-10-11T20:09:38.093Z,92.06
2022-10-11T20:12:06.140Z,92.39
2022-10-11T20:14:33.832Z,94.17
2022-10-11T20:17:02.065Z,94.71
2022-10-11T20:19:31.307Z,90.78
2022-10-11T20:22:00.854Z,88.81
2022-10-11T20:24:33.397Z,89.59
2022-10-11T20:27:04.412Z,89.57
2022-10-11T20:29:32.971Z,88.40
2022-10-11T20:32:00.917Z,88.23
2022-10-11T20:34:31.688Z,87.92
2022-10-11T20:37:02.402Z,86.78
2022-10-11T20:39:30.222Z,88.39
2022-10-11T20:41:58.325Z,89.66
2022-10-11T20:44:29.658Z,89.58
2022-10-11T20:47:03.026Z,88.97
2022-10-11T20:49:32.677Z,88.48
2022-10-11T20:52:00.291Z,89.79
2022-10-11T20:54:29.268Z,91.57
2022-10-11T20:56:57.978Z,93.53
2022-10-11T20:59:25.850Z,94.16
2022-10-11T21:01:53.663Z,95.19
2022-10-11T21:04:21.848Z,95.35
2022-10-11T21:06:49.950Z,96.27
2022-10-11T21:09:17.985Z,96.15
2022-10-11T21:11:46.541Z,95.28
2022-10-11T21:14:14.469Z,94.60
2022-10-11T21:16:42.427Z,94.56
2022-10-11T21:19:14.494Z,96.23
2022-10-11T21:21:42.884Z,95.99
2022-10-11T21:24:11.140Z,96.03
2022-10-11T21:26:39.101Z,96.19
2022-10-11T21:29:07.813Z,96.77
2022-10-11T21:31:36.667Z,97.30
2022-10-11T21:34:05.480Z,97.11
2022-10-11T21:36:33.344Z,95.69
2022-10-11T21:39:01.574Z,96.23
2022-10-11T21:41:30.393Z,97.14
2022-10-11T21:43:58.663Z,97.20
2022-10-11T21:47:05.026Z,95.80
2022-10-11T21:49:24.390Z,97.21
2022-10-11T21:51:52.685Z,98.37
2022-10-11T21:54:20.637Z,98.84
2022-10-11T21:56:48.546Z,98.39
2022-10-11T21:59:16.797Z,98.92
2022-10-11T22:01:47.755Z,98.78
2022-10-11T22:04:15.996Z,96.55
2022-10-11T22:06:43.926Z,95.87
2022-10-11T22:09:12.001Z,97.47
2022-10-11T22:11:40.165Z,97.20
2022-10-11T22:14:08.881Z,97.52
2022-10-11T22:16:36.915Z,96.13
2022-10-11T22:19:05.286Z,95.73
2022-10-11T22:21:33.261Z,97.74
2022-10-11T22:24:01.184Z,99.44
2022-10-11T22:26:31.534Z,99.11
2022-10-11T22:29:00.733Z,98.78
2022-10-11T22:31:29.744Z,99.28
2022-10-11T22:34:00.272Z,100.00
2022-10-11T22:36:30.806Z,100.00
2022-10-11T22:39:02.953Z,100.00
2022-10-11T22:41:35.771Z,100.00
2022-10-11T22:44:04.976Z,99.85
2022-10-11T22:46:33.161Z,100.00
2022-10-11T22:49:03.970Z,100.00
2022-10-11T22:51:32.143Z,100.00
2022-10-11T22:53:59.947Z,100.00
2022-10-11T22:56:30.625Z,100.00
2022-10-11T22:58:59.289Z,100.00
2022-10-11T23:01:27.159Z,100.00
2022-10-11T23:03:55.102Z,100.00
2022-10-11T23:06:23.455Z,100.00
2022-10-11T23:08:51.224Z,100.00
2022-10-11T23:11:19.147Z,100.00
2022-10-11T23:13:47.265Z,100.00
2022-10-11T23:16:18.253Z,100.00
2022-10-11T23:18:45.943Z,98.18
2022-10-11T23:21:14.064Z,97.43
2022-10-11T23:23:41.874Z,97.79
2022-10-11T23:26:14.602Z,97.78
2022-10-11T23:28:43.472Z,98.75
2022-10-11T23:31:14.832Z,96.11
2022-10-11T23:33:43.849Z,94.62
2022-10-11T23:36:20.187Z,95.47
2022-10-11T23:38:53.588Z,95.40
2022-10-11T23:41:22.758Z,98.67
2022-10-11T23:43:51.165Z,100.00
2022-10-11T23:46:19.055Z,97.54
2022-10-11T23:48:46.866Z,94.32
2022-10-11T23:51:15.370Z,96.14
2022-10-11T23:53:43.244Z,95.83
2022-10-11T23:56:12.157Z,97.45
2022-10-11T23:58:40.789Z,96.99
